Main page
METAR-TAF:

METAR-TAF

Airports :

Alicante–Elche Airport

Alicante, Spain

latitude: 38-17N, longitude: 000-33W, elevation: 43 m

Current weather observation

The report was made 24 minutes ago, at 03:00 UTC
Calm wind
Temperature 6°C
Humidity 93%
Pressure 1027 hPa
Visibility 10 km or more
no clouds below 1500 m and no cumulonimbus

METAR: LEAL 210300Z 00000KT CAVOK 06/05 Q1027 NOSIG

Time: 04:24 (03:24 UTC)

Forecast

The report was made 4 hours and 24 minutes ago, at 23:00 UTC
Forecast valid from 21 at 00 UTC to 21 at 24 UTC
Wind 7 kt from the North/Northwest
Visibility 10 km or more
Few clouds at a height of 2000 ft
Becoming
from 21 at 09 UTC to 21 at 11 UTC
Wind 10 kt from the East

TAF: LEAL 202300Z 2100/2124 34007KT 9999 FEW020 TX16/2113Z TN07/2106Z BECMG 2109/2111 08010KT

Weather observations and forecasts of more than 4000 airports (METAR and TAF reports).

The available stations are represented by yellow and red dots on the map.

Hover mouse over dot to see the name of the station.

Then click to see weather observations and forecasts.

To change the map : click on the green buttons with a black cross to zoom in, on the green button with a dash to zoom out, or on the green arrows for adjacent maps.


METAR-TAF: